Ordhonikidzeabad, Tajikistan
Current Conditions -  °F | °C
As of 9:30 AM on Monday 20 Oct 2014 (Local Time) from UTDD Reporting Station
Broken Clouds Broken Clouds  
Wind Chill: 66°   Ceiling: 13000
Heat Index: 66°   Visibility: 5mi
Dew Point: 48°   Wind: 2mph
Humidity: 52%   Direction: NA
Pressure: 30.06"   Gusts: NA
Location:  38.57°N, 69.02°E
Report Text: UTDD 200430Z VRB01MPS 8000 FEW066CB BKN130 19/09 Q1018 09CLRD70NOSIG RMK QFE696/0928
Loading
Personal Weather Stations






























Interactive Weather Map
Tropical Storm Tracking
New forecast layout! Learn more

10-Day Weather Forecast

Advertisements
Track Severe Weather on mobile